sensor_id;sensor_type;location;lat;lon;timestamp;P1;durP1;ratioP1;P2;durP2;ratioP2
41077;SDS011;26823;42.662;23.352;2023-06-04T00:00:07;4.75;;;3.95;;
41077;SDS011;26823;42.662;23.352;2023-06-04T00:02:33;3.97;;;3.58;;
41077;SDS011;26823;42.662;23.352;2023-06-04T00:04:58;5.95;;;3.50;;
41077;SDS011;26823;42.662;23.352;2023-06-04T00:07:24;5.88;;;4.18;;
41077;SDS011;26823;42.662;23.352;2023-06-04T00:09:49;5.85;;;3.90;;
41077;SDS011;26823;42.662;23.352;2023-06-04T00:12:15;4.43;;;3.67;;
41077;SDS011;26823;42.662;23.352;2023-06-04T00:14:40;3.65;;;3.35;;
41077;SDS011;26823;42.662;23.352;2023-06-04T00:17:12;3.55;;;3.22;;
41077;SDS011;26823;42.662;23.352;2023-06-04T00:19:38;3.58;;;3.28;;
41077;SDS011;26823;42.662;23.352;2023-06-04T00:22:05;5.18;;;3.42;;
41077;SDS011;26823;42.662;23.352;2023-06-04T00:24:31;6.43;;;3.63;;
41077;SDS011;26823;42.662;23.352;2023-06-04T00:26:57;4.47;;;3.67;;
41077;SDS011;26823;42.662;23.352;2023-06-04T00:29:22;4.05;;;3.42;;
41077;SDS011;26823;42.662;23.352;2023-06-04T00:31:48;3.78;;;3.30;;
41077;SDS011;26823;42.662;23.352;2023-06-04T00:34:13;4.80;;;3.35;;
41077;SDS011;26823;42.662;23.352;2023-06-04T00:36:39;5.28;;;3.92;;
41077;SDS011;26823;42.662;23.352;2023-06-04T00:39:04;6.32;;;3.40;;
41077;SDS011;26823;42.662;23.352;2023-06-04T00:41:30;5.55;;;3.55;;
41077;SDS011;26823;42.662;23.352;2023-06-04T00:43:55;4.75;;;3.70;;
41077;SDS011;26823;42.662;23.352;2023-06-04T00:46:30;5.72;;;3.15;;
41077;SDS011;26823;42.662;23.352;2023-06-04T00:48:56;5.35;;;3.63;;
41077;SDS011;26823;42.662;23.352;2023-06-04T00:51:22;6.40;;;3.90;;
41077;SDS011;26823;42.662;23.352;2023-06-04T00:53:51;4.18;;;3.78;;
41077;SDS011;26823;42.662;23.352;2023-06-04T00:56:16;5.13;;;4.55;;
41077;SDS011;26823;42.662;23.352;2023-06-04T00:58:43;5.22;;;4.78;;
41077;SDS011;26823;42.662;23.352;2023-06-04T01:01:12;6.82;;;6.07;;
41077;SDS011;26823;42.662;23.352;2023-06-04T01:03:45;6.28;;;5.22;;
41077;SDS011;26823;42.662;23.352;2023-06-04T01:06:18;7.60;;;5.90;;
41077;SDS011;26823;42.662;23.352;2023-06-04T01:08:50;7.07;;;6.25;;
41077;SDS011;26823;42.662;23.352;2023-06-04T01:11:29;7.55;;;6.15;;
41077;SDS011;26823;42.662;23.352;2023-06-04T01:13:59;11.45;;;6.00;;
41077;SDS011;26823;42.662;23.352;2023-06-04T01:16:26;10.98;;;7.07;;
41077;SDS011;26823;42.662;23.352;2023-06-04T01:18:55;8.07;;;6.40;;
41077;SDS011;26823;42.662;23.352;2023-06-04T01:21:24;6.57;;;5.93;;
41077;SDS011;26823;42.662;23.352;2023-06-04T01:23:53;7.65;;;6.70;;
41077;SDS011;26823;42.662;23.352;2023-06-04T01:26:24;8.50;;;7.60;;
41077;SDS011;26823;42.662;23.352;2023-06-04T01:28:51;8.20;;;7.28;;
41077;SDS011;26823;42.662;23.352;2023-06-04T01:31:18;8.43;;;6.55;;
41077;SDS011;26823;42.662;23.352;2023-06-04T01:33:48;10.25;;;7.55;;
41077;SDS011;26823;42.662;23.352;2023-06-04T01:36:16;6.70;;;6.03;;
41077;SDS011;26823;42.662;23.352;2023-06-04T01:38:41;8.13;;;5.95;;
41077;SDS011;26823;42.662;23.352;2023-06-04T01:41:07;6.30;;;4.97;;
41077;SDS011;26823;42.662;23.352;2023-06-04T01:43:32;4.47;;;4.07;;
41077;SDS011;26823;42.662;23.352;2023-06-04T01:46:00;4.45;;;3.70;;
41077;SDS011;26823;42.662;23.352;2023-06-04T01:48:25;4.65;;;4.03;;
41077;SDS011;26823;42.662;23.352;2023-06-04T01:50:51;4.72;;;3.40;;
41077;SDS011;26823;42.662;23.352;2023-06-04T01:53:16;3.92;;;3.38;;
41077;SDS011;26823;42.662;23.352;2023-06-04T01:55:42;6.88;;;3.60;;
41077;SDS011;26823;42.662;23.352;2023-06-04T01:58:08;5.53;;;3.25;;
41077;SDS011;26823;42.662;23.352;2023-06-04T02:00:34;4.20;;;2.80;;
41077;SDS011;26823;42.662;23.352;2023-06-04T02:02:59;4.90;;;3.08;;
41077;SDS011;26823;42.662;23.352;2023-06-04T02:05:25;3.20;;;2.90;;
41077;SDS011;26823;42.662;23.352;2023-06-04T02:07:51;4.22;;;3.60;;
41077;SDS011;26823;42.662;23.352;2023-06-04T02:10:17;3.58;;;3.17;;
41077;SDS011;26823;42.662;23.352;2023-06-04T02:13:00;4.57;;;2.97;;
41077;SDS011;26823;42.662;23.352;2023-06-04T02:15:30;3.53;;;2.70;;
41077;SDS011;26823;42.662;23.352;2023-06-04T02:17:57;5.22;;;2.90;;
41077;SDS011;26823;42.662;23.352;2023-06-04T02:20:25;3.60;;;2.83;;
41077;SDS011;26823;42.662;23.352;2023-06-04T02:22:51;4.18;;;3.00;;
41077;SDS011;26823;42.662;23.352;2023-06-04T02:25:16;3.97;;;2.88;;
41077;SDS011;26823;42.662;23.352;2023-06-04T02:27:42;4.30;;;3.10;;
41077;SDS011;26823;42.662;23.352;2023-06-04T02:30:07;3.80;;;3.40;;
41077;SDS011;26823;42.662;23.352;2023-06-04T02:32:33;4.45;;;2.90;;
41077;SDS011;26823;42.662;23.352;2023-06-04T02:35:01;5.28;;;3.58;;
41077;SDS011;26823;42.662;23.352;2023-06-04T02:37:27;3.53;;;3.22;;
41077;SDS011;26823;42.662;23.352;2023-06-04T02:39:52;4.32;;;3.13;;
41077;SDS011;26823;42.662;23.352;2023-06-04T02:42:18;3.38;;;2.97;;
41077;SDS011;26823;42.662;23.352;2023-06-04T02:44:43;3.55;;;3.25;;
41077;SDS011;26823;42.662;23.352;2023-06-04T02:47:08;3.78;;;3.40;;
41077;SDS011;26823;42.662;23.352;2023-06-04T02:49:34;5.68;;;4.03;;
41077;SDS011;26823;42.662;23.352;2023-06-04T02:51:59;4.43;;;4.03;;
41077;SDS011;26823;42.662;23.352;2023-06-04T02:54:25;4.30;;;3.90;;
41077;SDS011;26823;42.662;23.352;2023-06-04T02:56:50;4.18;;;3.78;;
41077;SDS011;26823;42.662;23.352;2023-06-04T02:59:16;3.75;;;3.42;;
41077;SDS011;26823;42.662;23.352;2023-06-04T03:01:41;4.53;;;3.40;;
41077;SDS011;26823;42.662;23.352;2023-06-04T03:04:07;4.80;;;4.30;;
41077;SDS011;26823;42.662;23.352;2023-06-04T03:06:35;4.50;;;3.80;;
41077;SDS011;26823;42.662;23.352;2023-06-04T03:09:03;3.92;;;3.53;;
41077;SDS011;26823;42.662;23.352;2023-06-04T03:11:28;3.55;;;3.20;;
41077;SDS011;26823;42.662;23.352;2023-06-04T03:13:54;4.57;;;3.80;;
41077;SDS011;26823;42.662;23.352;2023-06-04T03:16:19;6.57;;;3.55;;
41077;SDS011;26823;42.662;23.352;2023-06-04T03:18:45;4.30;;;3.28;;
41077;SDS011;26823;42.662;23.352;2023-06-04T03:21:11;3.90;;;3.60;;
41077;SDS011;26823;42.662;23.352;2023-06-04T03:23:37;3.90;;;3.60;;
41077;SDS011;26823;42.662;23.352;2023-06-04T03:26:03;3.63;;;3.33;;
41077;SDS011;26823;42.662;23.352;2023-06-04T03:28:30;4.03;;;3.63;;
41077;SDS011;26823;42.662;23.352;2023-06-04T03:30:57;3.47;;;3.17;;
41077;SDS011;26823;42.662;23.352;2023-06-04T03:33:23;3.80;;;3.35;;
41077;SDS011;26823;42.662;23.352;2023-06-04T03:35:49;3.90;;;3.50;;
41077;SDS011;26823;42.662;23.352;2023-06-04T03:38:15;4.90;;;4.40;;
41077;SDS011;26823;42.662;23.352;2023-06-04T03:40:40;4.30;;;3.88;;
41077;SDS011;26823;42.662;23.352;2023-06-04T03:43:06;3.60;;;3.10;;
41077;SDS011;26823;42.662;23.352;2023-06-04T03:45:31;4.18;;;3.75;;
41077;SDS011;26823;42.662;23.352;2023-06-04T03:47:57;5.13;;;3.92;;
41077;SDS011;26823;42.662;23.352;2023-06-04T03:50:22;4.05;;;3.65;;
41077;SDS011;26823;42.662;23.352;2023-06-04T03:52:48;3.95;;;3.58;;
41077;SDS011;26823;42.662;23.352;2023-06-04T03:55:14;4.28;;;3.42;;
41077;SDS011;26823;42.662;23.352;2023-06-04T03:57:40;3.47;;;3.17;;
41077;SDS011;26823;42.662;23.352;2023-06-04T04:00:06;7.15;;;3.75;;
41077;SDS011;26823;42.662;23.352;2023-06-04T04:02:34;4.45;;;3.42;;
41077;SDS011;26823;42.662;23.352;2023-06-04T04:04:59;3.92;;;3.45;;
41077;SDS011;26823;42.662;23.352;2023-06-04T04:07:24;4.20;;;3.60;;
41077;SDS011;26823;42.662;23.352;2023-06-04T04:09:51;3.67;;;3.38;;
41077;SDS011;26823;42.662;23.352;2023-06-04T04:12:17;5.25;;;3.70;;
41077;SDS011;26823;42.662;23.352;2023-06-04T04:14:42;3.55;;;3.25;;
41077;SDS011;26823;42.662;23.352;2023-06-04T04:17:08;4.28;;;3.80;;
41077;SDS011;26823;42.662;23.352;2023-06-04T04:19:33;5.88;;;3.80;;
41077;SDS011;26823;42.662;23.352;2023-06-04T04:21:59;4.95;;;3.45;;
41077;SDS011;26823;42.662;23.352;2023-06-04T04:24:25;4.22;;;3.83;;
41077;SDS011;26823;42.662;23.352;2023-06-04T04:26:52;4.40;;;3.90;;
41077;SDS011;26823;42.662;23.352;2023-06-04T04:29:18;5.53;;;3.72;;
41077;SDS011;26823;42.662;23.352;2023-06-04T04:31:47;6.03;;;4.03;;
41077;SDS011;26823;42.662;23.352;2023-06-04T04:34:16;7.85;;;4.40;;
41077;SDS011;26823;42.662;23.352;2023-06-04T04:36:42;3.85;;;3.50;;
41077;SDS011;26823;42.662;23.352;2023-06-04T04:39:23;5.82;;;4.00;;
41077;SDS011;26823;42.662;23.352;2023-06-04T04:41:50;7.85;;;4.07;;
41077;SDS011;26823;42.662;23.352;2023-06-04T04:44:15;5.82;;;4.53;;
41077;SDS011;26823;42.662;23.352;2023-06-04T04:46:41;5.65;;;4.65;;
41077;SDS011;26823;42.662;23.352;2023-06-04T04:49:06;6.45;;;4.28;;
41077;SDS011;26823;42.662;23.352;2023-06-04T04:51:32;6.45;;;4.45;;
41077;SDS011;26823;42.662;23.352;2023-06-04T04:53:58;5.60;;;4.28;;
41077;SDS011;26823;42.662;23.352;2023-06-04T04:56:27;5.70;;;4.60;;
41077;SDS011;26823;42.662;23.352;2023-06-04T04:58:53;5.72;;;4.80;;
41077;SDS011;26823;42.662;23.352;2023-06-04T05:01:19;6.28;;;4.60;;
41077;SDS011;26823;42.662;23.352;2023-06-04T05:03:44;6.63;;;4.55;;
41077;SDS011;26823;42.662;23.352;2023-06-04T05:06:10;7.43;;;4.93;;
41077;SDS011;26823;42.662;23.352;2023-06-04T05:08:35;5.22;;;4.13;;
41077;SDS011;26823;42.662;23.352;2023-06-04T05:11:01;6.97;;;4.13;;
41077;SDS011;26823;42.662;23.352;2023-06-04T05:13:26;6.03;;;4.88;;
41077;SDS011;26823;42.662;23.352;2023-06-04T05:15:52;6.13;;;4.95;;
41077;SDS011;26823;42.662;23.352;2023-06-04T05:18:17;9.15;;;4.70;;
41077;SDS011;26823;42.662;23.352;2023-06-04T05:20:45;9.52;;;5.30;;
41077;SDS011;26823;42.662;23.352;2023-06-04T05:23:11;6.80;;;5.53;;
41077;SDS011;26823;42.662;23.352;2023-06-04T05:25:37;8.00;;;4.93;;
41077;SDS011;26823;42.662;23.352;2023-06-04T05:28:03;6.05;;;4.93;;
41077;SDS011;26823;42.662;23.352;2023-06-04T05:30:28;7.68;;;4.53;;
41077;SDS011;26823;42.662;23.352;2023-06-04T05:32:53;5.85;;;4.50;;
41077;SDS011;26823;42.662;23.352;2023-06-04T05:35:19;7.97;;;5.05;;
41077;SDS011;26823;42.662;23.352;2023-06-04T05:37:45;6.85;;;4.50;;
41077;SDS011;26823;42.662;23.352;2023-06-04T05:40:10;7.10;;;5.68;;
41077;SDS011;26823;42.662;23.352;2023-06-04T05:42:36;5.88;;;5.20;;
41077;SDS011;26823;42.662;23.352;2023-06-04T05:45:02;6.82;;;5.50;;
41077;SDS011;26823;42.662;23.352;2023-06-04T05:47:28;6.93;;;4.80;;
41077;SDS011;26823;42.662;23.352;2023-06-04T05:49:54;6.28;;;5.40;;
41077;SDS011;26823;42.662;23.352;2023-06-04T05:52:20;7.60;;;5.00;;
41077;SDS011;26823;42.662;23.352;2023-06-04T05:54:45;7.22;;;5.15;;
41077;SDS011;26823;42.662;23.352;2023-06-04T05:57:11;7.65;;;5.45;;
41077;SDS011;26823;42.662;23.352;2023-06-04T05:59:36;10.20;;;5.20;;
41077;SDS011;26823;42.662;23.352;2023-06-04T06:02:01;8.93;;;5.65;;
41077;SDS011;26823;42.662;23.352;2023-06-04T06:04:27;7.43;;;5.30;;
41077;SDS011;26823;42.662;23.352;2023-06-04T06:06:52;7.07;;;6.07;;
41077;SDS011;26823;42.662;23.352;2023-06-04T06:09:19;5.97;;;5.47;;
41077;SDS011;26823;42.662;23.352;2023-06-04T06:11:44;10.45;;;5.90;;
41077;SDS011;26823;42.662;23.352;2023-06-04T06:14:10;5.82;;;5.20;;
41077;SDS011;26823;42.662;23.352;2023-06-04T06:16:35;7.88;;;5.63;;
41077;SDS011;26823;42.662;23.352;2023-06-04T06:19:01;6.25;;;5.30;;
41077;SDS011;26823;42.662;23.352;2023-06-04T06:21:27;6.30;;;5.15;;
41077;SDS011;26823;42.662;23.352;2023-06-04T06:23:53;7.43;;;5.53;;
41077;SDS011;26823;42.662;23.352;2023-06-04T06:26:19;6.53;;;5.28;;
41077;SDS011;26823;42.662;23.352;2023-06-04T06:28:44;9.00;;;6.15;;
41077;SDS011;26823;42.662;23.352;2023-06-04T06:31:09;9.68;;;5.18;;
41077;SDS011;26823;42.662;23.352;2023-06-04T06:33:35;9.55;;;4.93;;
41077;SDS011;26823;42.662;23.352;2023-06-04T06:36:05;11.10;;;5.60;;
41077;SDS011;26823;42.662;23.352;2023-06-04T06:38:44;6.90;;;5.13;;
41077;SDS011;26823;42.662;23.352;2023-06-04T06:41:13;7.57;;;5.50;;
41077;SDS011;26823;42.662;23.352;2023-06-04T06:43:38;5.53;;;4.82;;
41077;SDS011;26823;42.662;23.352;2023-06-04T06:46:04;8.45;;;5.88;;
41077;SDS011;26823;42.662;23.352;2023-06-04T06:48:30;7.50;;;5.72;;
41077;SDS011;26823;42.662;23.352;2023-06-04T06:50:56;8.63;;;5.53;;
41077;SDS011;26823;42.662;23.352;2023-06-04T06:53:21;7.72;;;5.18;;
41077;SDS011;26823;42.662;23.352;2023-06-04T06:55:47;4.90;;;4.40;;
41077;SDS011;26823;42.662;23.352;2023-06-04T06:58:12;7.78;;;5.28;;
41077;SDS011;26823;42.662;23.352;2023-06-04T07:00:38;7.32;;;5.10;;
41077;SDS011;26823;42.662;23.352;2023-06-04T07:03:03;7.05;;;5.10;;
41077;SDS011;26823;42.662;23.352;2023-06-04T07:05:29;7.40;;;5.10;;
41077;SDS011;26823;42.662;23.352;2023-06-04T07:07:55;11.40;;;6.25;;
41077;SDS011;26823;42.662;23.352;2023-06-04T07:10:27;6.18;;;5.30;;
41077;SDS011;26823;42.662;23.352;2023-06-04T07:12:54;7.35;;;5.05;;
41077;SDS011;26823;42.662;23.352;2023-06-04T07:15:19;5.50;;;5.00;;
41077;SDS011;26823;42.662;23.352;2023-06-04T07:17:45;7.35;;;5.20;;
41077;SDS011;26823;42.662;23.352;2023-06-04T07:20:10;6.38;;;5.47;;
41077;SDS011;26823;42.662;23.352;2023-06-04T07:22:36;9.25;;;5.82;;
41077;SDS011;26823;42.662;23.352;2023-06-04T07:25:01;10.52;;;5.20;;
41077;SDS011;26823;42.662;23.352;2023-06-04T07:27:27;6.35;;;5.32;;
41077;SDS011;26823;42.662;23.352;2023-06-04T07:29:53;7.07;;;5.18;;
41077;SDS011;26823;42.662;23.352;2023-06-04T07:32:18;8.10;;;6.25;;
41077;SDS011;26823;42.662;23.352;2023-06-04T07:34:43;8.40;;;5.80;;
41077;SDS011;26823;42.662;23.352;2023-06-04T07:37:09;9.57;;;5.60;;
41077;SDS011;26823;42.662;23.352;2023-06-04T07:39:35;7.80;;;5.38;;
41077;SDS011;26823;42.662;23.352;2023-06-04T07:42:00;7.80;;;5.40;;
41077;SDS011;26823;42.662;23.352;2023-06-04T07:44:25;7.22;;;5.00;;
41077;SDS011;26823;42.662;23.352;2023-06-04T07:46:51;9.02;;;5.35;;
41077;SDS011;26823;42.662;23.352;2023-06-04T07:49:16;7.47;;;5.40;;
41077;SDS011;26823;42.662;23.352;2023-06-04T07:51:41;7.72;;;5.93;;
41077;SDS011;26823;42.662;23.352;2023-06-04T07:54:07;8.23;;;5.13;;
41077;SDS011;26823;42.662;23.352;2023-06-04T07:56:32;7.00;;;5.85;;
41077;SDS011;26823;42.662;23.352;2023-06-04T07:58:58;8.32;;;5.53;;
41077;SDS011;26823;42.662;23.352;2023-06-04T08:01:23;6.00;;;5.43;;
41077;SDS011;26823;42.662;23.352;2023-06-04T08:03:49;7.70;;;5.60;;
41077;SDS011;26823;42.662;23.352;2023-06-04T08:06:14;9.15;;;5.85;;
41077;SDS011;26823;42.662;23.352;2023-06-04T08:08:43;8.15;;;5.60;;
41077;SDS011;26823;42.662;23.352;2023-06-04T08:11:13;9.27;;;5.78;;
41077;SDS011;26823;42.662;23.352;2023-06-04T08:13:40;5.85;;;5.25;;
41077;SDS011;26823;42.662;23.352;2023-06-04T08:16:05;7.03;;;5.97;;
41077;SDS011;26823;42.662;23.352;2023-06-04T08:18:31;6.47;;;5.78;;
41077;SDS011;26823;42.662;23.352;2023-06-04T08:20:56;10.77;;;6.32;;
41077;SDS011;26823;42.662;23.352;2023-06-04T08:23:22;8.55;;;5.95;;
41077;SDS011;26823;42.662;23.352;2023-06-04T08:25:47;8.25;;;6.32;;
41077;SDS011;26823;42.662;23.352;2023-06-04T08:28:13;10.65;;;7.63;;
41077;SDS011;26823;42.662;23.352;2023-06-04T08:30:40;8.50;;;6.63;;
41077;SDS011;26823;42.662;23.352;2023-06-04T08:33:07;9.95;;;7.05;;
41077;SDS011;26823;42.662;23.352;2023-06-04T08:35:32;8.50;;;6.85;;
41077;SDS011;26823;42.662;23.352;2023-06-04T08:37:57;10.50;;;7.05;;
41077;SDS011;26823;42.662;23.352;2023-06-04T08:40:24;8.32;;;5.75;;
41077;SDS011;26823;42.662;23.352;2023-06-04T08:42:49;8.25;;;6.75;;
41077;SDS011;26823;42.662;23.352;2023-06-04T08:45:22;8.80;;;6.80;;
41077;SDS011;26823;42.662;23.352;2023-06-04T08:47:49;14.63;;;6.68;;
41077;SDS011;26823;42.662;23.352;2023-06-04T08:50:23;7.82;;;6.57;;
41077;SDS011;26823;42.662;23.352;2023-06-04T08:52:51;10.57;;;6.63;;
41077;SDS011;26823;42.662;23.352;2023-06-04T08:55:19;10.68;;;6.85;;
41077;SDS011;26823;42.662;23.352;2023-06-04T08:57:44;10.65;;;7.10;;
41077;SDS011;26823;42.662;23.352;2023-06-04T09:00:10;10.75;;;6.55;;
41077;SDS011;26823;42.662;23.352;2023-06-04T09:02:37;8.88;;;6.68;;
41077;SDS011;26823;42.662;23.352;2023-06-04T09:05:06;12.45;;;6.30;;
41077;SDS011;26823;42.662;23.352;2023-06-04T09:07:36;9.88;;;6.75;;
41077;SDS011;26823;42.662;23.352;2023-06-04T09:10:04;8.38;;;6.35;;
41077;SDS011;26823;42.662;23.352;2023-06-04T09:12:32;7.72;;;6.45;;
41077;SDS011;26823;42.662;23.352;2023-06-04T09:15:00;8.88;;;6.57;;
41077;SDS011;26823;42.662;23.352;2023-06-04T09:17:26;8.13;;;6.72;;
41077;SDS011;26823;42.662;23.352;2023-06-04T09:19:53;9.07;;;6.65;;
41077;SDS011;26823;42.662;23.352;2023-06-04T09:22:18;12.77;;;7.38;;
41077;SDS011;26823;42.662;23.352;2023-06-04T09:24:47;8.75;;;5.88;;
41077;SDS011;26823;42.662;23.352;2023-06-04T09:27:18;8.65;;;6.88;;
41077;SDS011;26823;42.662;23.352;2023-06-04T09:32:20;10.60;;;7.07;;
41077;SDS011;26823;42.662;23.352;2023-06-04T09:34:47;10.75;;;8.60;;
41077;SDS011;26823;42.662;23.352;2023-06-04T09:37:15;9.48;;;6.70;;
41077;SDS011;26823;42.662;23.352;2023-06-04T09:39:42;11.80;;;7.78;;
41077;SDS011;26823;42.662;23.352;2023-06-04T09:42:08;11.75;;;8.48;;
41077;SDS011;26823;42.662;23.352;2023-06-04T09:44:42;12.43;;;9.07;;
41077;SDS011;26823;42.662;23.352;2023-06-04T09:47:10;12.88;;;8.15;;
41077;SDS011;26823;42.662;23.352;2023-06-04T09:49:40;10.40;;;8.27;;
41077;SDS011;26823;42.662;23.352;2023-06-04T09:52:13;10.40;;;7.32;;
41077;SDS011;26823;42.662;23.352;2023-06-04T09:54:39;13.50;;;8.40;;
41077;SDS011;26823;42.662;23.352;2023-06-04T09:57:19;11.80;;;7.93;;
41077;SDS011;26823;42.662;23.352;2023-06-04T09:59:48;12.85;;;8.25;;
41077;SDS011;26823;42.662;23.352;2023-06-04T10:02:19;14.50;;;8.45;;
41077;SDS011;26823;42.662;23.352;2023-06-04T10:04:48;14.43;;;7.60;;
41077;SDS011;26823;42.662;23.352;2023-06-04T10:07:17;12.23;;;6.90;;
41077;SDS011;26823;42.662;23.352;2023-06-04T10:09:43;8.98;;;6.65;;
41077;SDS011;26823;42.662;23.352;2023-06-04T10:12:15;12.00;;;7.75;;
41077;SDS011;26823;42.662;23.352;2023-06-04T10:14:52;10.20;;;6.67;;
41077;SDS011;26823;42.662;23.352;2023-06-04T10:17:28;10.25;;;8.05;;
41077;SDS011;26823;42.662;23.352;2023-06-04T10:19:55;9.13;;;5.82;;
41077;SDS011;26823;42.662;23.352;2023-06-04T10:22:23;9.43;;;6.38;;
41077;SDS011;26823;42.662;23.352;2023-06-04T10:24:49;11.95;;;6.35;;
41077;SDS011;26823;42.662;23.352;2023-06-04T10:27:14;9.02;;;6.28;;
41077;SDS011;26823;42.662;23.352;2023-06-04T10:29:42;12.02;;;6.15;;
41077;SDS011;26823;42.662;23.352;2023-06-04T10:32:08;6.63;;;5.90;;
41077;SDS011;26823;42.662;23.352;2023-06-04T10:34:34;8.27;;;6.60;;
41077;SDS011;26823;42.662;23.352;2023-06-04T10:37:00;7.43;;;6.40;;
41077;SDS011;26823;42.662;23.352;2023-06-04T10:39:29;9.00;;;6.25;;
41077;SDS011;26823;42.662;23.352;2023-06-04T10:42:00;10.10;;;6.55;;
41077;SDS011;26823;42.662;23.352;2023-06-04T10:44:27;8.57;;;7.30;;
41077;SDS011;26823;42.662;23.352;2023-06-04T10:46:53;7.50;;;6.80;;
41077;SDS011;26823;42.662;23.352;2023-06-04T10:49:28;13.48;;;7.30;;
41077;SDS011;26823;42.662;23.352;2023-06-04T10:51:56;9.23;;;6.60;;
41077;SDS011;26823;42.662;23.352;2023-06-04T10:54:22;9.00;;;6.95;;
41077;SDS011;26823;42.662;23.352;2023-06-04T10:56:51;9.85;;;6.75;;
41077;SDS011;26823;42.662;23.352;2023-06-04T10:59:20;9.93;;;6.50;;
41077;SDS011;26823;42.662;23.352;2023-06-04T11:02:02;7.93;;;6.75;;
41077;SDS011;26823;42.662;23.352;2023-06-04T11:04:30;8.10;;;7.00;;
41077;SDS011;26823;42.662;23.352;2023-06-04T11:07:02;8.32;;;7.00;;
41077;SDS011;26823;42.662;23.352;2023-06-04T11:09:28;7.20;;;6.53;;
41077;SDS011;26823;42.662;23.352;2023-06-04T11:12:01;8.85;;;6.88;;
41077;SDS011;26823;42.662;23.352;2023-06-04T11:14:29;7.60;;;6.78;;
41077;SDS011;26823;42.662;23.352;2023-06-04T11:16:55;7.80;;;7.00;;
41077;SDS011;26823;42.662;23.352;2023-06-04T11:19:20;10.38;;;6.75;;
41077;SDS011;26823;42.662;23.352;2023-06-04T11:21:46;7.82;;;7.03;;
41077;SDS011;26823;42.662;23.352;2023-06-04T11:24:12;7.78;;;6.88;;
41077;SDS011;26823;42.662;23.352;2023-06-04T11:26:38;9.35;;;6.75;;
41077;SDS011;26823;42.662;23.352;2023-06-04T11:29:07;9.18;;;7.53;;
41077;SDS011;26823;42.662;23.352;2023-06-04T11:31:42;10.23;;;7.40;;
41077;SDS011;26823;42.662;23.352;2023-06-04T11:34:08;12.07;;;7.38;;
41077;SDS011;26823;42.662;23.352;2023-06-04T11:36:33;8.77;;;7.63;;
41077;SDS011;26823;42.662;23.352;2023-06-04T11:38:59;8.27;;;7.53;;
41077;SDS011;26823;42.662;23.352;2023-06-04T11:41:30;10.65;;;7.85;;
41077;SDS011;26823;42.662;23.352;2023-06-04T11:43:56;9.55;;;7.75;;
41077;SDS011;26823;42.662;23.352;2023-06-04T11:46:23;9.45;;;7.15;;
41077;SDS011;26823;42.662;23.352;2023-06-04T11:48:52;8.27;;;7.32;;
41077;SDS011;26823;42.662;23.352;2023-06-04T11:51:20;9.43;;;7.60;;
41077;SDS011;26823;42.662;23.352;2023-06-04T11:53:46;12.73;;;9.25;;
41077;SDS011;26823;42.662;23.352;2023-06-04T11:56:12;8.93;;;7.75;;
41077;SDS011;26823;42.662;23.352;2023-06-04T11:58:38;11.43;;;7.57;;
41077;SDS011;26823;42.662;23.352;2023-06-04T12:01:05;9.43;;;8.55;;
41077;SDS011;26823;42.662;23.352;2023-06-04T12:03:36;8.73;;;7.32;;
41077;SDS011;26823;42.662;23.352;2023-06-04T12:09:02;8.70;;;7.80;;
41077;SDS011;26823;42.662;23.352;2023-06-04T12:11:30;8.18;;;7.38;;
41077;SDS011;26823;42.662;23.352;2023-06-04T12:13:57;11.20;;;8.02;;
41077;SDS011;26823;42.662;23.352;2023-06-04T12:16:24;11.57;;;8.07;;
41077;SDS011;26823;42.662;23.352;2023-06-04T12:18:50;11.45;;;8.05;;
41077;SDS011;26823;42.662;23.352;2023-06-04T12:21:25;9.38;;;8.15;;
41077;SDS011;26823;42.662;23.352;2023-06-04T12:26:32;12.02;;;8.55;;
41077;SDS011;26823;42.662;23.352;2023-06-04T12:29:06;10.05;;;8.40;;
41077;SDS011;26823;42.662;23.352;2023-06-04T12:31:36;9.30;;;8.27;;
41077;SDS011;26823;42.662;23.352;2023-06-04T12:34:02;13.93;;;7.90;;
41077;SDS011;26823;42.662;23.352;2023-06-04T12:36:27;10.85;;;8.40;;
41077;SDS011;26823;42.662;23.352;2023-06-04T12:38:53;9.23;;;8.25;;
41077;SDS011;26823;42.662;23.352;2023-06-04T12:41:23;7.80;;;7.15;;
41077;SDS011;26823;42.662;23.352;2023-06-04T12:43:48;9.40;;;8.02;;
41077;SDS011;26823;42.662;23.352;2023-06-04T12:46:14;11.93;;;8.52;;
41077;SDS011;26823;42.662;23.352;2023-06-04T12:48:39;14.45;;;8.98;;
41077;SDS011;26823;42.662;23.352;2023-06-04T12:51:05;9.45;;;8.45;;
41077;SDS011;26823;42.662;23.352;2023-06-04T12:53:33;9.10;;;8.00;;
41077;SDS011;26823;42.662;23.352;2023-06-04T12:55:58;8.02;;;7.22;;
41077;SDS011;26823;42.662;23.352;2023-06-04T12:58:24;8.75;;;7.85;;
41077;SDS011;26823;42.662;23.352;2023-06-04T13:00:49;8.85;;;7.95;;
41077;SDS011;26823;42.662;23.352;2023-06-04T13:03:15;8.48;;;7.68;;
41077;SDS011;26823;42.662;23.352;2023-06-04T13:05:40;9.82;;;7.38;;
41077;SDS011;26823;42.662;23.352;2023-06-04T13:08:06;7.65;;;6.95;;
41077;SDS011;26823;42.662;23.352;2023-06-04T13:10:31;8.63;;;7.53;;
41077;SDS011;26823;42.662;23.352;2023-06-04T13:12:57;8.80;;;7.22;;
41077;SDS011;26823;42.662;23.352;2023-06-04T13:15:22;10.48;;;7.43;;
41077;SDS011;26823;42.662;23.352;2023-06-04T13:17:47;8.57;;;6.80;;
41077;SDS011;26823;42.662;23.352;2023-06-04T13:20:13;8.07;;;7.20;;
41077;SDS011;26823;42.662;23.352;2023-06-04T13:22:38;8.57;;;7.10;;
41077;SDS011;26823;42.662;23.352;2023-06-04T13:25:04;9.43;;;7.35;;
41077;SDS011;26823;42.662;23.352;2023-06-04T13:27:29;8.82;;;6.68;;
41077;SDS011;26823;42.662;23.352;2023-06-04T13:29:55;7.18;;;6.47;;
41077;SDS011;26823;42.662;23.352;2023-06-04T13:32:20;10.65;;;6.70;;
41077;SDS011;26823;42.662;23.352;2023-06-04T13:34:45;9.45;;;6.97;;
41077;SDS011;26823;42.662;23.352;2023-06-04T13:37:11;6.57;;;5.97;;
41077;SDS011;26823;42.662;23.352;2023-06-04T13:39:37;6.57;;;5.90;;
41077;SDS011;26823;42.662;23.352;2023-06-04T13:42:03;7.53;;;5.97;;
41077;SDS011;26823;42.662;23.352;2023-06-04T13:44:28;7.03;;;6.32;;
41077;SDS011;26823;42.662;23.352;2023-06-04T13:46:54;7.97;;;6.25;;
41077;SDS011;26823;42.662;23.352;2023-06-04T13:49:19;7.15;;;5.95;;
41077;SDS011;26823;42.662;23.352;2023-06-04T13:51:45;7.05;;;5.85;;
41077;SDS011;26823;42.662;23.352;2023-06-04T13:54:11;7.13;;;6.43;;
41077;SDS011;26823;42.662;23.352;2023-06-04T13:56:36;6.95;;;5.82;;
41077;SDS011;26823;42.662;23.352;2023-06-04T13:59:01;8.32;;;5.82;;
41077;SDS011;26823;42.662;23.352;2023-06-04T14:01:27;7.28;;;5.85;;
41077;SDS011;26823;42.662;23.352;2023-06-04T14:03:52;7.43;;;6.57;;
41077;SDS011;26823;42.662;23.352;2023-06-04T14:06:18;7.93;;;6.82;;
41077;SDS011;26823;42.662;23.352;2023-06-04T14:08:43;7.82;;;6.47;;
41077;SDS011;26823;42.662;23.352;2023-06-04T14:11:09;6.65;;;5.80;;
41077;SDS011;26823;42.662;23.352;2023-06-04T14:13:35;6.75;;;5.82;;
41077;SDS011;26823;42.662;23.352;2023-06-04T14:16:02;8.60;;;6.75;;
41077;SDS011;26823;42.662;23.352;2023-06-04T14:18:29;7.13;;;6.43;;
41077;SDS011;26823;42.662;23.352;2023-06-04T14:20:54;9.65;;;6.93;;
41077;SDS011;26823;42.662;23.352;2023-06-04T14:23:19;7.85;;;6.40;;
41077;SDS011;26823;42.662;23.352;2023-06-04T14:25:45;7.75;;;6.95;;
41077;SDS011;26823;42.662;23.352;2023-06-04T14:28:10;7.50;;;6.68;;
41077;SDS011;26823;42.662;23.352;2023-06-04T14:30:36;9.85;;;6.78;;
41077;SDS011;26823;42.662;23.352;2023-06-04T14:33:01;8.90;;;6.75;;
41077;SDS011;26823;42.662;23.352;2023-06-04T14:35:26;11.02;;;8.00;;
41077;SDS011;26823;42.662;23.352;2023-06-04T14:37:52;7.38;;;6.57;;